地図

経路データ

SID SEASON NUMBER BASIN SUBBASIN NAME ISO_TIME NATURE LAT LON WMO_WIND WMO_PRES WMO_AGENCY TRACK_TYPE DIST2LAND LANDFALL IFLAG USA_AGENCY USA_ATCF_ID USA_LAT USA_LON USA_RECORD USA_STATUS USA_WIND USA_PRES USA_SSHS USA_R34_NE USA_R34_SE USA_R34_SW USA_R34_NW USA_R50_NE USA_R50_SE USA_R50_SW USA_R50_NW USA_R64_NE USA_R64_SE USA_R64_SW USA_R64_NW USA_POCI USA_ROCI USA_RMW USA_EYE TOKYO_LAT TOKYO_LON TOKYO_GRADE TOKYO_WIND TOKYO_PRES TOKYO_R50_DIR TOKYO_R50_LONG TOKYO_R50_SHORT TOKYO_R30_DIR TOKYO_R30_LONG TOKYO_R30_SHORT TOKYO_LAND CMA_LAT CMA_LON CMA_CAT CMA_WIND CMA_PRES HKO_LAT HKO_LON HKO_CAT HKO_WIND HKO_PRES NEWDELHI_LAT NEWDELHI_LON NEWDELHI_GRADE NEWDELHI_WIND NEWDELHI_PRES NEWDELHI_CI NEWDELHI_DP NEWDELHI_POCI REUNION_LAT REUNION_LON REUNION_TYPE REUNION_WIND REUNION_PRES REUNION_TNUM REUNION_CI REUNION_RMW REUNION_R34_NE REUNION_R34_SE REUNION_R34_SW REUNION_R34_NW REUNION_R50_NE REUNION_R50_SE REUNION_R50_SW REUNION_R50_NW REUNION_R64_NE REUNION_R64_SE REUNION_R64_SW REUNION_R64_NW BOM_LAT BOM_LON BOM_TYPE BOM_WIND BOM_PRES BOM_TNUM BOM_CI BOM_RMW BOM_R34_NE BOM_R34_SE BOM_R34_SW BOM_R34_NW BOM_R50_NE BOM_R50_SE BOM_R50_SW BOM_R50_NW BOM_R64_NE BOM_R64_SE BOM_R64_SW BOM_R64_NW BOM_ROCI BOM_POCI BOM_EYE BOM_POS_METHOD BOM_PRES_METHOD NADI_LAT NADI_LON NADI_CAT NADI_WIND NADI_PRES WELLINGTON_LAT WELLINGTON_LON WELLINGTON_WIND WELLINGTON_PRES DS824_LAT DS824_LON DS824_STAGE DS824_WIND DS824_PRES TD9636_LAT TD9636_LON TD9636_STAGE TD9636_WIND TD9636_PRES TD9635_LAT TD9635_LON TD9635_WIND TD9635_PRES TD9635_ROCI NEUMANN_LAT NEUMANN_LON NEUMANN_CLASS NEUMANN_WIND NEUMANN_PRES MLC_LAT MLC_LON MLC_CLASS MLC_WIND MLC_PRES USA_GUST BOM_GUST BOM_GUST_PER REUNION_GUST REUNION_GUST_PER USA_SEAHGT USA_SEARAD_NE USA_SEARAD_SE USA_SEARAD_SW USA_SEARAD_NW STORM_SPEED STORM_DIR
2020329N10084 2020 45 NI BB NIVAR 2020-11-23 12:00:00 NR 10.0000 83.9000 PROVISIONAL 327 285 O_____________ tcvitals BB042020 10.0000 83.9000 35 1003 0 75 55 60 70 1008 200 45 9 259
2020329N10084 2020 45 NI BB NIVAR 2020-11-23 15:00:00 NR 9.91770 83.4549 PROVISIONAL 285 251 P_____________ BB042020 9.91770 83.4549 37 1002 0 75 55 60 70 1009 200 45 7 254
2020329N10084 2020 45 NI BB NIVAR 2020-11-23 18:00:00 NR 9.80000 83.2000 PROVISIONAL 251 239 O_____________ tcvitals BB042020 9.80000 83.2000 39 1002 0 75 55 60 70 1010 200 45 4 217
2020329N10084 2020 45 NI BB NIVAR 2020-11-23 21:00:00 NR 9.63494 83.2351 PROVISIONAL 239 239 P_____________ BB042020 9.63494 83.2351 39 1001 0 62 42 45 57 1009 190 37 3 163
2020329N10084 2020 45 NI BB NIVAR 2020-11-24 00:00:00 NR 9.50000 83.3000 PROVISIONAL 242 223 O_____________ tcvitals BB042020 9.50000 83.3000 39 1001 0 50 30 30 45 1008 180 30 2 222
2020329N10084 2020 45 NI BB NIVAR 2020-11-24 03:00:00 NR 9.45508 83.0725 PROVISIONAL 223 197 P_____________ BB042020 9.45508 83.0725 42 999 0 40 45 47 45 1008 172 35 5 270
2020329N10084 2020 45 NI BB NIVAR 2020-11-24 06:00:00 NR 9.50000 82.8000 PROVISIONAL 197 183 O_____________ tcvitals BB042020 9.50000 82.8000 45 998 0 30 60 65 45 1008 165 40 5 292
2020329N10084 2020 45 NI BB NIVAR 2020-11-24 09:00:00 NR 9.62747 82.6401 PROVISIONAL 183 183 P_____________ BB042020 9.62747 82.6401 48 995 0 37 57 65 45 1007 157 25 4 327
2020329N10084 2020 45 NI BB NIVAR 2020-11-24 12:00:00 NR 9.80000 82.6000 PROVISIONAL 197 197 O_____________ tcvitals BB042020 9.80000 82.6000 51 993 0 45 55 65 45 1006 150 10 3 24
2020329N10084 2020 45 NI BB NIVAR 2020-11-24 15:00:00 NR 9.89754 82.7574 PROVISIONAL 221 221 P_____________ BB042020 9.89754 82.7574 51 993 0 67 57 67 60 1007 165 10 4 44
2020329N10084 2020 45 NI BB NIVAR 2020-11-24 18:00:00 NR 10.1000 82.9000 PROVISIONAL 243 243 O_____________ tcvitals BB042020 10.1000 82.9000 51 994 0 90 60 70 75 1008 180 10 7 6
2020329N10084 2020 45 NI BB NIVAR 2020-11-24 21:00:00 NR 10.6149 82.8327 PROVISIONAL 263 263 P_____________ BB042020 10.6149 82.8327 55 991 0 92 60 72 80 1007 180 10 11 343
2020329N10084 2020 45 NI BB NIVAR 2020-11-25 00:00:00 NR 11.1000 82.6000 PROVISIONAL 281 261 O_____________ tcvitals BB042020 11.1000 82.6000 60 988 0 95 60 75 85 1007 180 10 8 315
2020329N10084 2020 45 NI BB NIVAR 2020-11-25 03:00:00 NR 11.1951 82.2373 PROVISIONAL 251 207 P_____________ BB042020 11.1951 82.2373 60 989 0 95 60 75 85 1007 180 15 8 277
2020329N10084 2020 45 NI BB NIVAR 2020-11-25 06:00:00 NR 11.2000 81.8000 PROVISIONAL 207 165 O_____________ tcvitals BB042020 11.2000 81.8000 60 990 0 95 60 75 85 1008 180 20 8 283
2020329N10084 2020 45 NI BB NIVAR 2020-11-25 09:00:00 NR 11.3774 81.4075 PROVISIONAL 165 127 P_____________ BB042020 11.3774 81.4075 65 986 1 95 60 75 82 1007 190 15 9 297
2020329N10084 2020 45 NI BB NIVAR 2020-11-25 12:00:00 NR 11.6000 81.0000 PROVISIONAL 127 79 O_____________ tcvitals BB042020 11.6000 81.0000 70 982 1 95 60 75 80 1006 200 10 10 297
2020329N10084 2020 45 NI BB NIVAR 2020-11-25 15:00:00 NR 11.8075 80.5425 PROVISIONAL 69 21 P_____________ BB042020 11.8075 80.5425 70 981 1 117 77 80 105 1007 180 10 10 294
2020329N10084 2020 45 NI BB NIVAR 2020-11-25 18:00:00 NR 12.0000 80.1000 PROVISIONAL 21 0 O_____________ tcvitals BB042020 12.0000 80.1000 70 981 1 140 95 85 130 1008 160 10 9 292
2020329N10084 2020 45 NI BB NIVAR 2020-11-25 21:00:00 NR 12.1430 79.6760 PROVISIONAL 0 0 P_____________ BB042020 12.1430 79.6760 62 986 0 145 90 82 128 1007 155 10 7 294
2020329N10084 2020 45 NI BB NIVAR 2020-11-26 00:00:00 NR 12.3000 79.4000 PROVISIONAL 0 0 O_____________ tcvitals BB042020 12.3000 79.4000 54 991 0 150 85 80 126 1007 150 10 5 320
2020329N10084 2020 45 NI BB NIVAR 2020-11-26 03:00:00 NR 12.5270 79.3468 PROVISIONAL 0 0 P_____________ BB042020 12.5270 79.3468 -1 5 10
2020329N10084 2020 45 NI BB NIVAR 2020-11-26 06:00:00 NR 12.7943 79.4866 PROVISIONAL 0 0 O_____________ tcvitals BB042020 12.7943 79.4866 -1 7 35
2020329N10084 2020 45 NI BB NIVAR 2020-11-26 09:00:00 NR 13.0756 79.7495 PROVISIONAL 0 0 P_____________ BB042020 13.0756 79.7495 -1 8 45
2020329N10084 2020 45 NI BB NIVAR 2020-11-26 12:00:00 NR 13.3614 80.0733 PROVISIONAL 0 O_____________ tcvitals BB042020 13.3614 80.0733 -1 9 48

IBTrACS Databaseについて

本データベースは、米国NOAAが公開する1842年以降の世界の熱帯低気圧のベストトラックデータアーカイブInternational Best Track Archive for Climate Stewardship (IBTrACS)を、ウェブで閲覧しやすい形式に変換したものです。

最終更新日:2021-10-21